Froeybanken — LJML — position and weather

sailwx.info

Track history (hours):
 
Tides and Currents Weather Stations Pressure Air Temp Water Temp Dewpoint Dewpoint Depression Visibility Wind Speed Wind Dir Waves Ship Positions

Froeybanken

Last reported at 2016-Feb-17 04:25 UTC. Time now 2016-Apr-28 19:48 UTC.
Position N 66°57' E 013°19'.
Warning: this ship's position is months out of date.

Length 22 m; draft 3.6 m.

Type: Fishing. MMSI: 257470500.

Date/timePositionNaut miles runAvg speedWind from/ knotsBaromVisibWave heightAir tempDewpointWater temp
2016-Feb-17 04:25N 66°57' E 013°19'7 8.0
2016-Feb-17 03:32N 66°50' E 013°16'26 8.5
2016-Feb-17 00:32N 66°25' E 012°59'85 8.4
2016-Feb-16 14:24N 65°05' E 011°47'7 8.2
2016-Feb-16 13:33N 64°60' E 011°36'8 8.3
2016-Feb-16 12:33N 64°54' E 011°22'4 4.0
2016-Feb-16 11:33N 64°52' E 011°14'0 0.0
2016-Feb-16 10:33N 64°52' E 011°14'5 4.8
2016-Feb-16 09:33N 64°48' E 011°07'9 8.4
2016-Feb-16 08:33N 64°42' E 010°53'71 7.9
2016-Feb-15 23:33N 63°42' E 009°25'8 8.0
2016-Feb-15 22:33N 63°35' E 009°16'8 7.8
2016-Feb-15 21:33N 63°30' E 009°04'  
Track history (hours):
 
Tides and Currents Weather Stations Pressure Air Temp Water Temp Dewpoint Dewpoint Depression Visibility Wind Speed Wind Dir Waves Ship Positions

Froeybanken

Last reported at 2016-Feb-17 04:25 UTC. Time now 2016-Apr-28 19:48 UTC.
Position N 66°57' E 013°19'.
Warning: this ship's position is months out of date.

Length 22 m; draft 3.6 m.

Type: Fishing. MMSI: 257470500.

Date/timePositionNaut miles runAvg speedWind from/ knotsBaromVisibWave heightAir tempDewpointWater temp
2016-Feb-17 04:25N 66°57' E 013°19'7 8.0
2016-Feb-17 03:32N 66°50' E 013°16'26 8.5
2016-Feb-17 00:32N 66°25' E 012°59'85 8.4
2016-Feb-16 14:24N 65°05' E 011°47'7 8.2
2016-Feb-16 13:33N 64°60' E 011°36'8 8.3
2016-Feb-16 12:33N 64°54' E 011°22'4 4.0
2016-Feb-16 11:33N 64°52' E 011°14'0 0.0
2016-Feb-16 10:33N 64°52' E 011°14'5 4.8
2016-Feb-16 09:33N 64°48' E 011°07'9 8.4
2016-Feb-16 08:33N 64°42' E 010°53'71 7.9
2016-Feb-15 23:33N 63°42' E 009°25'8 8.0
2016-Feb-15 22:33N 63°35' E 009°16'8 7.8
2016-Feb-15 21:33N 63°30' E 009°04'  

Dump ship's entire track history